sensor_id;sensor_type;location;lat;lon;timestamp;P1;durP1;ratioP1;P2;durP2;ratioP2
16254;SDS011;8235;52.198;9.904;2022-07-29T00:00:12;4.17;;;1.20;;
16254;SDS011;8235;52.198;9.904;2022-07-29T00:02:39;2.97;;;1.33;;
16254;SDS011;8235;52.198;9.904;2022-07-29T00:05:05;3.83;;;1.50;;
16254;SDS011;8235;52.198;9.904;2022-07-29T00:07:34;3.23;;;1.43;;
16254;SDS011;8235;52.198;9.904;2022-07-29T00:10:01;4.23;;;1.10;;
16254;SDS011;8235;52.198;9.904;2022-07-29T00:12:27;3.13;;;1.30;;
16254;SDS011;8235;52.198;9.904;2022-07-29T00:14:55;1.50;;;1.07;;
16254;SDS011;8235;52.198;9.904;2022-07-29T00:17:22;1.43;;;1.00;;
16254;SDS011;8235;52.198;9.904;2022-07-29T00:19:49;2.83;;;1.13;;
16254;SDS011;8235;52.198;9.904;2022-07-29T00:22:16;3.70;;;1.30;;
16254;SDS011;8235;52.198;9.904;2022-07-29T00:24:42;2.87;;;1.20;;
16254;SDS011;8235;52.198;9.904;2022-07-29T00:27:09;3.23;;;1.50;;
16254;SDS011;8235;52.198;9.904;2022-07-29T00:29:35;3.37;;;1.50;;
16254;SDS011;8235;52.198;9.904;2022-07-29T00:32:03;3.50;;;1.33;;
16254;SDS011;8235;52.198;9.904;2022-07-29T00:34:30;2.20;;;1.10;;
16254;SDS011;8235;52.198;9.904;2022-07-29T00:37:14;3.80;;;1.00;;
16254;SDS011;8235;52.198;9.904;2022-07-29T00:39:41;3.13;;;1.30;;
16254;SDS011;8235;52.198;9.904;2022-07-29T00:42:08;8.90;;;1.80;;
16254;SDS011;8235;52.198;9.904;2022-07-29T00:44:38;2.93;;;1.10;;
16254;SDS011;8235;52.198;9.904;2022-07-29T00:47:06;4.23;;;1.10;;
16254;SDS011;8235;52.198;9.904;2022-07-29T00:49:33;7.53;;;1.60;;
16254;SDS011;8235;52.198;9.904;2022-07-29T00:52:00;2.27;;;1.10;;
16254;SDS011;8235;52.198;9.904;2022-07-29T00:54:27;2.43;;;1.00;;
16254;SDS011;8235;52.198;9.904;2022-07-29T00:56:54;4.60;;;1.10;;
16254;SDS011;8235;52.198;9.904;2022-07-29T00:59:21;3.43;;;1.27;;
16254;SDS011;8235;52.198;9.904;2022-07-29T01:01:47;2.40;;;1.07;;
16254;SDS011;8235;52.198;9.904;2022-07-29T01:04:15;4.47;;;1.43;;
16254;SDS011;8235;52.198;9.904;2022-07-29T01:06:42;3.07;;;1.00;;
16254;SDS011;8235;52.198;9.904;2022-07-29T01:09:09;1.73;;;0.90;;
16254;SDS011;8235;52.198;9.904;2022-07-29T01:11:37;2.27;;;1.13;;
16254;SDS011;8235;52.198;9.904;2022-07-29T01:14:04;3.53;;;1.30;;
16254;SDS011;8235;52.198;9.904;2022-07-29T01:16:34;3.07;;;1.10;;
16254;SDS011;8235;52.198;9.904;2022-07-29T01:19:07;3.17;;;1.10;;
16254;SDS011;8235;52.198;9.904;2022-07-29T01:21:48;3.57;;;1.10;;
16254;SDS011;8235;52.198;9.904;2022-07-29T01:24:27;2.40;;;1.10;;
16254;SDS011;8235;52.198;9.904;2022-07-29T01:27:02;2.57;;;1.37;;
16254;SDS011;8235;52.198;9.904;2022-07-29T01:29:40;3.97;;;1.20;;
16254;SDS011;8235;52.198;9.904;2022-07-29T01:32:10;1.13;;;1.00;;
16254;SDS011;8235;52.198;9.904;2022-07-29T01:34:41;2.63;;;1.20;;
16254;SDS011;8235;52.198;9.904;2022-07-29T01:37:15;2.40;;;1.00;;
16254;SDS011;8235;52.198;9.904;2022-07-29T01:39:45;3.43;;;1.20;;
16254;SDS011;8235;52.198;9.904;2022-07-29T01:42:14;3.40;;;1.20;;
16254;SDS011;8235;52.198;9.904;2022-07-29T01:44:48;5.63;;;1.50;;
16254;SDS011;8235;52.198;9.904;2022-07-29T01:47:20;2.80;;;1.60;;
16254;SDS011;8235;52.198;9.904;2022-07-29T01:49:52;3.50;;;1.10;;
16254;SDS011;8235;52.198;9.904;2022-07-29T01:52:23;3.93;;;1.10;;
16254;SDS011;8235;52.198;9.904;2022-07-29T01:54:54;3.83;;;1.07;;
16254;SDS011;8235;52.198;9.904;2022-07-29T01:57:24;2.63;;;1.40;;
16254;SDS011;8235;52.198;9.904;2022-07-29T01:59:55;2.57;;;1.30;;
16254;SDS011;8235;52.198;9.904;2022-07-29T02:02:24;4.10;;;1.10;;
16254;SDS011;8235;52.198;9.904;2022-07-29T02:04:52;3.63;;;1.10;;
16254;SDS011;8235;52.198;9.904;2022-07-29T02:07:21;2.23;;;1.00;;
16254;SDS011;8235;52.198;9.904;2022-07-29T02:09:49;4.17;;;1.30;;
16254;SDS011;8235;52.198;9.904;2022-07-29T02:12:17;3.50;;;1.40;;
16254;SDS011;8235;52.198;9.904;2022-07-29T02:14:47;3.57;;;1.40;;
16254;SDS011;8235;52.198;9.904;2022-07-29T02:17:19;2.10;;;1.30;;
16254;SDS011;8235;52.198;9.904;2022-07-29T02:19:48;3.63;;;1.27;;
16254;SDS011;8235;52.198;9.904;2022-07-29T02:22:16;3.40;;;1.30;;
16254;SDS011;8235;52.198;9.904;2022-07-29T02:24:44;2.83;;;1.00;;
16254;SDS011;8235;52.198;9.904;2022-07-29T02:27:14;1.87;;;0.97;;
16254;SDS011;8235;52.198;9.904;2022-07-29T02:29:41;2.93;;;1.20;;
16254;SDS011;8235;52.198;9.904;2022-07-29T02:32:09;3.70;;;1.40;;
16254;SDS011;8235;52.198;9.904;2022-07-29T02:34:39;3.10;;;1.23;;
16254;SDS011;8235;52.198;9.904;2022-07-29T02:37:09;2.30;;;1.50;;
16254;SDS011;8235;52.198;9.904;2022-07-29T02:39:37;2.20;;;1.30;;
16254;SDS011;8235;52.198;9.904;2022-07-29T02:42:06;2.23;;;1.23;;
16254;SDS011;8235;52.198;9.904;2022-07-29T02:44:36;3.43;;;1.50;;
16254;SDS011;8235;52.198;9.904;2022-07-29T02:47:03;3.23;;;1.30;;
16254;SDS011;8235;52.198;9.904;2022-07-29T02:49:42;2.77;;;1.20;;
16254;SDS011;8235;52.198;9.904;2022-07-29T02:52:19;3.30;;;1.37;;
16254;SDS011;8235;52.198;9.904;2022-07-29T02:54:51;3.60;;;1.30;;
16254;SDS011;8235;52.198;9.904;2022-07-29T02:57:21;2.13;;;1.10;;
16254;SDS011;8235;52.198;9.904;2022-07-29T02:59:53;5.33;;;1.47;;
16254;SDS011;8235;52.198;9.904;2022-07-29T03:02:25;2.33;;;1.23;;
16254;SDS011;8235;52.198;9.904;2022-07-29T03:04:54;3.73;;;1.80;;
16254;SDS011;8235;52.198;9.904;2022-07-29T03:07:23;4.23;;;1.30;;
16254;SDS011;8235;52.198;9.904;2022-07-29T03:09:50;3.43;;;1.47;;
16254;SDS011;8235;52.198;9.904;2022-07-29T03:12:18;1.80;;;1.10;;
16254;SDS011;8235;52.198;9.904;2022-07-29T03:14:45;3.63;;;1.17;;
16254;SDS011;8235;52.198;9.904;2022-07-29T03:17:13;4.07;;;1.10;;
16254;SDS011;8235;52.198;9.904;2022-07-29T03:19:41;4.17;;;1.50;;
16254;SDS011;8235;52.198;9.904;2022-07-29T03:22:09;2.07;;;1.20;;
16254;SDS011;8235;52.198;9.904;2022-07-29T03:24:37;3.67;;;1.10;;
16254;SDS011;8235;52.198;9.904;2022-07-29T03:27:03;2.67;;;1.20;;
16254;SDS011;8235;52.198;9.904;2022-07-29T03:29:31;4.27;;;1.30;;
16254;SDS011;8235;52.198;9.904;2022-07-29T03:31:58;2.00;;;1.00;;
16254;SDS011;8235;52.198;9.904;2022-07-29T03:34:24;5.33;;;1.20;;
16254;SDS011;8235;52.198;9.904;2022-07-29T03:36:51;2.43;;;1.20;;
16254;SDS011;8235;52.198;9.904;2022-07-29T03:39:20;2.60;;;1.23;;
16254;SDS011;8235;52.198;9.904;2022-07-29T03:41:49;2.80;;;1.17;;
16254;SDS011;8235;52.198;9.904;2022-07-29T03:44:19;4.97;;;1.67;;
16254;SDS011;8235;52.198;9.904;2022-07-29T03:46:48;3.63;;;1.53;;
16254;SDS011;8235;52.198;9.904;2022-07-29T03:49:16;2.07;;;1.50;;
16254;SDS011;8235;52.198;9.904;2022-07-29T03:51:45;2.20;;;1.43;;
16254;SDS011;8235;52.198;9.904;2022-07-29T03:54:12;4.23;;;1.00;;
16254;SDS011;8235;52.198;9.904;2022-07-29T03:56:42;3.23;;;1.30;;
16254;SDS011;8235;52.198;9.904;2022-07-29T03:59:12;2.23;;;1.23;;
16254;SDS011;8235;52.198;9.904;2022-07-29T04:01:40;3.33;;;1.00;;
16254;SDS011;8235;52.198;9.904;2022-07-29T04:04:07;2.33;;;1.30;;
16254;SDS011;8235;52.198;9.904;2022-07-29T04:06:38;2.70;;;1.20;;
16254;SDS011;8235;52.198;9.904;2022-07-29T04:09:05;3.47;;;1.40;;
16254;SDS011;8235;52.198;9.904;2022-07-29T04:11:32;3.60;;;1.40;;
16254;SDS011;8235;52.198;9.904;2022-07-29T04:14:00;4.77;;;0.97;;
16254;SDS011;8235;52.198;9.904;2022-07-29T04:16:26;6.37;;;1.30;;
16254;SDS011;8235;52.198;9.904;2022-07-29T04:18:53;2.43;;;1.33;;
16254;SDS011;8235;52.198;9.904;2022-07-29T04:21:19;2.27;;;1.07;;
16254;SDS011;8235;52.198;9.904;2022-07-29T04:23:46;3.73;;;1.50;;
16254;SDS011;8235;52.198;9.904;2022-07-29T04:26:14;3.37;;;1.30;;
16254;SDS011;8235;52.198;9.904;2022-07-29T04:28:41;3.10;;;1.27;;
16254;SDS011;8235;52.198;9.904;2022-07-29T04:31:09;5.77;;;1.53;;
16254;SDS011;8235;52.198;9.904;2022-07-29T04:33:36;2.77;;;1.60;;
16254;SDS011;8235;52.198;9.904;2022-07-29T04:36:03;2.47;;;1.20;;
16254;SDS011;8235;52.198;9.904;2022-07-29T04:38:30;3.73;;;1.20;;
16254;SDS011;8235;52.198;9.904;2022-07-29T04:40:56;2.57;;;1.20;;
16254;SDS011;8235;52.198;9.904;2022-07-29T04:43:23;4.70;;;1.27;;
16254;SDS011;8235;52.198;9.904;2022-07-29T04:45:49;5.17;;;1.40;;
16254;SDS011;8235;52.198;9.904;2022-07-29T04:48:17;2.83;;;1.20;;
16254;SDS011;8235;52.198;9.904;2022-07-29T04:50:44;3.20;;;1.20;;
16254;SDS011;8235;52.198;9.904;2022-07-29T04:53:10;4.80;;;1.50;;
16254;SDS011;8235;52.198;9.904;2022-07-29T04:55:37;2.90;;;1.37;;
16254;SDS011;8235;52.198;9.904;2022-07-29T04:58:03;3.00;;;1.70;;
16254;SDS011;8235;52.198;9.904;2022-07-29T05:00:30;2.73;;;1.73;;
16254;SDS011;8235;52.198;9.904;2022-07-29T05:02:56;3.73;;;1.67;;
16254;SDS011;8235;52.198;9.904;2022-07-29T05:05:24;4.57;;;1.47;;
16254;SDS011;8235;52.198;9.904;2022-07-29T05:07:51;2.80;;;1.30;;
16254;SDS011;8235;52.198;9.904;2022-07-29T05:10:17;3.13;;;1.40;;
16254;SDS011;8235;52.198;9.904;2022-07-29T05:12:44;3.17;;;1.30;;
16254;SDS011;8235;52.198;9.904;2022-07-29T05:15:10;2.27;;;1.30;;
16254;SDS011;8235;52.198;9.904;2022-07-29T05:17:37;3.70;;;1.30;;
16254;SDS011;8235;52.198;9.904;2022-07-29T05:20:04;6.57;;;1.80;;
16254;SDS011;8235;52.198;9.904;2022-07-29T05:22:32;6.27;;;1.90;;
16254;SDS011;8235;52.198;9.904;2022-07-29T05:24:59;4.27;;;1.60;;
16254;SDS011;8235;52.198;9.904;2022-07-29T05:27:25;3.50;;;1.43;;
16254;SDS011;8235;52.198;9.904;2022-07-29T05:29:52;4.43;;;1.50;;
16254;SDS011;8235;52.198;9.904;2022-07-29T05:32:18;5.00;;;1.77;;
16254;SDS011;8235;52.198;9.904;2022-07-29T05:34:45;4.30;;;1.47;;
16254;SDS011;8235;52.198;9.904;2022-07-29T05:37:12;5.37;;;1.57;;
16254;SDS011;8235;52.198;9.904;2022-07-29T05:39:40;3.93;;;1.47;;
16254;SDS011;8235;52.198;9.904;2022-07-29T05:42:07;4.90;;;1.40;;
16254;SDS011;8235;52.198;9.904;2022-07-29T05:44:35;5.40;;;1.70;;
16254;SDS011;8235;52.198;9.904;2022-07-29T05:47:02;5.43;;;1.77;;
16254;SDS011;8235;52.198;9.904;2022-07-29T05:49:29;3.03;;;1.43;;
16254;SDS011;8235;52.198;9.904;2022-07-29T05:51:56;4.27;;;1.70;;
16254;SDS011;8235;52.198;9.904;2022-07-29T05:54:23;5.90;;;1.90;;
16254;SDS011;8235;52.198;9.904;2022-07-29T05:56:51;5.03;;;2.00;;
16254;SDS011;8235;52.198;9.904;2022-07-29T05:59:17;4.40;;;2.00;;
16254;SDS011;8235;52.198;9.904;2022-07-29T06:01:44;4.50;;;1.80;;
16254;SDS011;8235;52.198;9.904;2022-07-29T06:04:10;4.93;;;1.77;;
16254;SDS011;8235;52.198;9.904;2022-07-29T06:06:37;4.93;;;1.80;;
16254;SDS011;8235;52.198;9.904;2022-07-29T06:09:03;3.63;;;1.53;;
16254;SDS011;8235;52.198;9.904;2022-07-29T06:11:30;5.03;;;1.80;;
16254;SDS011;8235;52.198;9.904;2022-07-29T06:13:58;3.93;;;1.77;;
16254;SDS011;8235;52.198;9.904;2022-07-29T06:16:24;4.70;;;1.67;;
16254;SDS011;8235;52.198;9.904;2022-07-29T06:18:51;7.53;;;2.00;;
16254;SDS011;8235;52.198;9.904;2022-07-29T06:21:18;3.80;;;1.50;;
16254;SDS011;8235;52.198;9.904;2022-07-29T06:23:44;5.10;;;1.40;;
16254;SDS011;8235;52.198;9.904;2022-07-29T06:26:11;6.30;;;1.90;;
16254;SDS011;8235;52.198;9.904;2022-07-29T06:28:38;5.40;;;1.87;;
16254;SDS011;8235;52.198;9.904;2022-07-29T06:31:06;4.53;;;1.60;;
16254;SDS011;8235;52.198;9.904;2022-07-29T06:33:33;2.77;;;1.67;;
16254;SDS011;8235;52.198;9.904;2022-07-29T06:35:59;5.40;;;1.80;;
16254;SDS011;8235;52.198;9.904;2022-07-29T06:38:26;4.10;;;2.23;;
16254;SDS011;8235;52.198;9.904;2022-07-29T06:40:52;3.63;;;2.00;;
16254;SDS011;8235;52.198;9.904;2022-07-29T06:43:30;4.23;;;1.67;;
16254;SDS011;8235;52.198;9.904;2022-07-29T06:46:02;4.00;;;1.70;;
16254;SDS011;8235;52.198;9.904;2022-07-29T06:48:31;5.87;;;2.20;;
16254;SDS011;8235;52.198;9.904;2022-07-29T06:50:59;6.07;;;1.70;;
16254;SDS011;8235;52.198;9.904;2022-07-29T06:53:26;4.87;;;2.17;;
16254;SDS011;8235;52.198;9.904;2022-07-29T06:55:54;5.90;;;1.90;;
16254;SDS011;8235;52.198;9.904;2022-07-29T06:58:20;5.60;;;2.07;;
16254;SDS011;8235;52.198;9.904;2022-07-29T07:00:47;3.10;;;1.60;;
16254;SDS011;8235;52.198;9.904;2022-07-29T07:03:14;6.53;;;1.87;;
16254;SDS011;8235;52.198;9.904;2022-07-29T07:05:42;4.33;;;1.97;;
16254;SDS011;8235;52.198;9.904;2022-07-29T07:08:09;7.87;;;1.90;;
16254;SDS011;8235;52.198;9.904;2022-07-29T07:10:36;3.00;;;1.80;;
16254;SDS011;8235;52.198;9.904;2022-07-29T07:13:03;5.00;;;1.70;;
16254;SDS011;8235;52.198;9.904;2022-07-29T07:15:30;6.73;;;1.60;;
16254;SDS011;8235;52.198;9.904;2022-07-29T07:17:57;7.43;;;1.77;;
16254;SDS011;8235;52.198;9.904;2022-07-29T07:20:24;3.87;;;1.60;;
16254;SDS011;8235;52.198;9.904;2022-07-29T07:22:52;5.10;;;2.00;;
16254;SDS011;8235;52.198;9.904;2022-07-29T07:25:18;2.83;;;1.90;;
16254;SDS011;8235;52.198;9.904;2022-07-29T07:27:45;5.10;;;2.20;;
16254;SDS011;8235;52.198;9.904;2022-07-29T07:30:12;2.80;;;1.77;;
16254;SDS011;8235;52.198;9.904;2022-07-29T07:32:39;3.77;;;1.50;;
16254;SDS011;8235;52.198;9.904;2022-07-29T07:35:06;5.83;;;1.83;;
16254;SDS011;8235;52.198;9.904;2022-07-29T07:37:34;7.73;;;2.17;;
16254;SDS011;8235;52.198;9.904;2022-07-29T07:40:03;3.73;;;1.53;;
16254;SDS011;8235;52.198;9.904;2022-07-29T07:42:30;4.20;;;1.67;;
16254;SDS011;8235;52.198;9.904;2022-07-29T07:44:57;4.57;;;1.73;;
16254;SDS011;8235;52.198;9.904;2022-07-29T07:47:23;4.70;;;1.67;;
16254;SDS011;8235;52.198;9.904;2022-07-29T07:49:50;6.17;;;2.20;;
16254;SDS011;8235;52.198;9.904;2022-07-29T07:52:17;4.53;;;2.03;;
16254;SDS011;8235;52.198;9.904;2022-07-29T07:54:45;5.07;;;1.80;;
16254;SDS011;8235;52.198;9.904;2022-07-29T07:57:15;5.00;;;2.00;;
16254;SDS011;8235;52.198;9.904;2022-07-29T07:59:42;5.13;;;1.60;;
16254;SDS011;8235;52.198;9.904;2022-07-29T08:02:08;4.50;;;2.17;;
16254;SDS011;8235;52.198;9.904;2022-07-29T08:04:35;5.57;;;2.07;;
16254;SDS011;8235;52.198;9.904;2022-07-29T08:07:02;5.33;;;1.93;;
16254;SDS011;8235;52.198;9.904;2022-07-29T08:09:28;3.13;;;2.10;;
16254;SDS011;8235;52.198;9.904;2022-07-29T08:11:55;7.77;;;2.03;;
16254;SDS011;8235;52.198;9.904;2022-07-29T08:14:24;5.83;;;1.87;;
16254;SDS011;8235;52.198;9.904;2022-07-29T08:16:50;6.30;;;2.20;;
16254;SDS011;8235;52.198;9.904;2022-07-29T08:19:17;3.87;;;1.97;;
16254;SDS011;8235;52.198;9.904;2022-07-29T08:21:43;10.37;;;2.43;;
16254;SDS011;8235;52.198;9.904;2022-07-29T08:24:10;3.27;;;1.60;;
16254;SDS011;8235;52.198;9.904;2022-07-29T08:26:54;5.70;;;1.70;;
16254;SDS011;8235;52.198;9.904;2022-07-29T08:29:21;4.43;;;1.90;;
16254;SDS011;8235;52.198;9.904;2022-07-29T08:31:49;2.70;;;1.53;;
16254;SDS011;8235;52.198;9.904;2022-07-29T08:34:15;4.33;;;2.10;;
16254;SDS011;8235;52.198;9.904;2022-07-29T08:36:42;8.83;;;2.20;;
16254;SDS011;8235;52.198;9.904;2022-07-29T08:39:08;3.73;;;1.70;;
16254;SDS011;8235;52.198;9.904;2022-07-29T08:41:35;4.50;;;1.47;;
16254;SDS011;8235;52.198;9.904;2022-07-29T08:44:01;5.43;;;1.70;;
16254;SDS011;8235;52.198;9.904;2022-07-29T08:46:29;4.10;;;1.70;;
16254;SDS011;8235;52.198;9.904;2022-07-29T08:48:56;4.03;;;1.70;;
16254;SDS011;8235;52.198;9.904;2022-07-29T08:51:23;5.80;;;2.00;;
16254;SDS011;8235;52.198;9.904;2022-07-29T08:53:52;3.63;;;1.80;;
16254;SDS011;8235;52.198;9.904;2022-07-29T08:56:20;6.03;;;2.10;;
16254;SDS011;8235;52.198;9.904;2022-07-29T08:58:48;5.20;;;2.00;;
16254;SDS011;8235;52.198;9.904;2022-07-29T09:01:16;6.17;;;1.90;;
16254;SDS011;8235;52.198;9.904;2022-07-29T09:03:50;4.97;;;1.83;;
16254;SDS011;8235;52.198;9.904;2022-07-29T09:06:22;4.10;;;1.90;;
16254;SDS011;8235;52.198;9.904;2022-07-29T09:08:52;3.67;;;1.92;;
16254;SDS011;8235;52.198;9.904;2022-07-29T09:11:23;4.10;;;2.15;;
16254;SDS011;8235;52.198;9.904;2022-07-29T09:13:52;6.97;;;2.10;;
16254;SDS011;8235;52.198;9.904;2022-07-29T09:16:19;3.65;;;2.05;;
16254;SDS011;8235;52.198;9.904;2022-07-29T09:18:45;6.03;;;1.80;;
16254;SDS011;8235;52.198;9.904;2022-07-29T09:21:15;4.53;;;1.80;;
16254;SDS011;8235;52.198;9.904;2022-07-29T09:24:06;10.15;;;2.60;;
16254;SDS011;8235;52.198;9.904;2022-07-29T09:26:34;7.10;;;2.22;;
16254;SDS011;8235;52.198;9.904;2022-07-29T09:29:07;3.75;;;2.10;;
16254;SDS011;8235;52.198;9.904;2022-07-29T09:31:39;6.47;;;1.75;;
16254;SDS011;8235;52.198;9.904;2022-07-29T09:34:07;4.45;;;1.65;;
16254;SDS011;8235;52.198;9.904;2022-07-29T09:36:40;4.50;;;2.17;;
16254;SDS011;8235;52.198;9.904;2022-07-29T09:39:09;5.38;;;2.08;;
16254;SDS011;8235;52.198;9.904;2022-07-29T09:41:46;5.50;;;2.25;;
16254;SDS011;8235;52.198;9.904;2022-07-29T09:44:13;6.40;;;2.00;;
16254;SDS011;8235;52.198;9.904;2022-07-29T09:46:41;7.90;;;2.15;;
16254;SDS011;8235;52.198;9.904;2022-07-29T09:49:19;8.05;;;2.20;;
16254;SDS011;8235;52.198;9.904;2022-07-29T09:51:45;8.32;;;2.10;;
16254;SDS011;8235;52.198;9.904;2022-07-29T09:54:22;8.32;;;1.88;;
16254;SDS011;8235;52.198;9.904;2022-07-29T09:56:51;5.90;;;1.90;;
16254;SDS011;8235;52.198;9.904;2022-07-29T09:59:18;8.55;;;2.28;;
16254;SDS011;8235;52.198;9.904;2022-07-29T10:01:49;5.45;;;2.25;;
16254;SDS011;8235;52.198;9.904;2022-07-29T10:04:16;3.67;;;2.00;;
16254;SDS011;8235;52.198;9.904;2022-07-29T10:06:55;5.15;;;2.05;;
16254;SDS011;8235;52.198;9.904;2022-07-29T10:09:25;4.70;;;1.80;;
16254;SDS011;8235;52.198;9.904;2022-07-29T10:12:08;4.68;;;1.95;;
16254;SDS011;8235;52.198;9.904;2022-07-29T10:14:36;5.20;;;2.20;;
16254;SDS011;8235;52.198;9.904;2022-07-29T10:17:04;3.85;;;2.03;;
16254;SDS011;8235;52.198;9.904;2022-07-29T10:19:32;5.43;;;2.17;;
16254;SDS011;8235;52.198;9.904;2022-07-29T10:22:00;8.68;;;2.25;;
16254;SDS011;8235;52.198;9.904;2022-07-29T10:24:30;6.43;;;1.80;;
16254;SDS011;8235;52.198;9.904;2022-07-29T10:26:58;7.32;;;2.17;;
16254;SDS011;8235;52.198;9.904;2022-07-29T10:29:26;4.75;;;2.00;;
16254;SDS011;8235;52.198;9.904;2022-07-29T10:31:57;5.78;;;2.30;;
16254;SDS011;8235;52.198;9.904;2022-07-29T10:34:44;6.95;;;2.83;;
16254;SDS011;8235;52.198;9.904;2022-07-29T10:37:26;5.63;;;2.38;;
16254;SDS011;8235;52.198;9.904;2022-07-29T10:40:03;6.90;;;2.33;;
16254;SDS011;8235;52.198;9.904;2022-07-29T10:42:50;6.95;;;2.20;;
16254;SDS011;8235;52.198;9.904;2022-07-29T10:45:19;4.80;;;2.35;;
16254;SDS011;8235;52.198;9.904;2022-07-29T10:47:46;5.40;;;2.40;;
16254;SDS011;8235;52.198;9.904;2022-07-29T10:50:13;4.20;;;2.10;;
16254;SDS011;8235;52.198;9.904;2022-07-29T10:52:52;5.28;;;2.10;;
16254;SDS011;8235;52.198;9.904;2022-07-29T10:55:31;4.70;;;2.00;;
16254;SDS011;8235;52.198;9.904;2022-07-29T10:58:15;4.05;;;2.30;;
16254;SDS011;8235;52.198;9.904;2022-07-29T11:00:43;5.05;;;2.00;;
16254;SDS011;8235;52.198;9.904;2022-07-29T11:06:09;3.83;;;1.98;;
16254;SDS011;8235;52.198;9.904;2022-07-29T11:08:36;6.05;;;2.30;;
16254;SDS011;8235;52.198;9.904;2022-07-29T11:14:05;4.10;;;2.00;;
16254;SDS011;8235;52.198;9.904;2022-07-29T11:19:28;7.72;;;2.25;;
16254;SDS011;8235;52.198;9.904;2022-07-29T11:21:55;4.13;;;2.00;;
16254;SDS011;8235;52.198;9.904;2022-07-29T11:24:22;5.57;;;2.38;;
16254;SDS011;8235;52.198;9.904;2022-07-29T11:27:16;3.72;;;2.47;;
16254;SDS011;8235;52.198;9.904;2022-07-29T11:29:48;3.85;;;1.73;;
16254;SDS011;8235;52.198;9.904;2022-07-29T11:32:19;6.75;;;2.25;;
16254;SDS011;8235;52.198;9.904;2022-07-29T11:34:49;3.70;;;2.33;;
16254;SDS011;8235;52.198;9.904;2022-07-29T11:37:36;6.70;;;2.17;;
16254;SDS011;8235;52.198;9.904;2022-07-29T11:40:15;4.18;;;2.67;;
16254;SDS011;8235;52.198;9.904;2022-07-29T11:42:48;7.75;;;2.40;;
16254;SDS011;8235;52.198;9.904;2022-07-29T11:45:21;6.35;;;2.22;;
16254;SDS011;8235;52.198;9.904;2022-07-29T11:47:54;6.32;;;2.45;;
16254;SDS011;8235;52.198;9.904;2022-07-29T11:50:27;5.03;;;2.20;;
16254;SDS011;8235;52.198;9.904;2022-07-29T11:52:55;10.00;;;2.30;;
16254;SDS011;8235;52.198;9.904;2022-07-29T11:55:23;5.47;;;2.13;;
16254;SDS011;8235;52.198;9.904;2022-07-29T11:57:52;5.22;;;2.42;;
16254;SDS011;8235;52.198;9.904;2022-07-29T12:00:21;6.53;;;2.28;;
16254;SDS011;8235;52.198;9.904;2022-07-29T12:02:49;4.82;;;2.15;;
16254;SDS011;8235;52.198;9.904;2022-07-29T12:05:16;5.90;;;2.47;;
16254;SDS011;8235;52.198;9.904;2022-07-29T12:07:46;7.32;;;2.42;;
16254;SDS011;8235;52.198;9.904;2022-07-29T12:10:13;5.13;;;2.10;;
16254;SDS011;8235;52.198;9.904;2022-07-29T12:12:40;6.57;;;2.60;;
16254;SDS011;8235;52.198;9.904;2022-07-29T12:15:12;13.82;;;2.85;;
16254;SDS011;8235;52.198;9.904;2022-07-29T12:17:40;4.45;;;2.20;;
16254;SDS011;8235;52.198;9.904;2022-07-29T12:20:07;4.85;;;2.38;;
16254;SDS011;8235;52.198;9.904;2022-07-29T12:22:35;4.15;;;2.30;;
16254;SDS011;8235;52.198;9.904;2022-07-29T12:25:05;8.55;;;2.40;;
16254;SDS011;8235;52.198;9.904;2022-07-29T12:27:33;7.65;;;2.30;;
16254;SDS011;8235;52.198;9.904;2022-07-29T12:30:01;4.53;;;2.42;;
16254;SDS011;8235;52.198;9.904;2022-07-29T12:32:35;4.90;;;2.30;;
16254;SDS011;8235;52.198;9.904;2022-07-29T12:35:03;5.88;;;2.17;;
16254;SDS011;8235;52.198;9.904;2022-07-29T12:37:32;5.50;;;2.38;;
16254;SDS011;8235;52.198;9.904;2022-07-29T12:39:59;3.72;;;2.40;;
16254;SDS011;8235;52.198;9.904;2022-07-29T12:42:25;9.90;;;2.90;;
16254;SDS011;8235;52.198;9.904;2022-07-29T12:44:52;5.13;;;2.70;;
16254;SDS011;8235;52.198;9.904;2022-07-29T12:47:19;7.35;;;2.78;;
16254;SDS011;8235;52.198;9.904;2022-07-29T12:49:48;4.53;;;2.47;;
16254;SDS011;8235;52.198;9.904;2022-07-29T12:52:25;4.60;;;2.28;;
16254;SDS011;8235;52.198;9.904;2022-07-29T12:54:53;7.47;;;2.80;;
16254;SDS011;8235;52.198;9.904;2022-07-29T12:57:19;5.18;;;2.60;;
16254;SDS011;8235;52.198;9.904;2022-07-29T12:59:58;6.72;;;3.10;;
16254;SDS011;8235;52.198;9.904;2022-07-29T13:02:36;7.32;;;3.35;;
16254;SDS011;8235;52.198;9.904;2022-07-29T13:05:05;10.07;;;2.90;;
16254;SDS011;8235;52.198;9.904;2022-07-29T13:07:34;4.72;;;2.72;;
16254;SDS011;8235;52.198;9.904;2022-07-29T13:10:14;5.43;;;2.50;;
16254;SDS011;8235;52.198;9.904;2022-07-29T13:15:27;7.72;;;2.67;;
16254;SDS011;8235;52.198;9.904;2022-07-29T13:17:54;9.68;;;2.95;;
16254;SDS011;8235;52.198;9.904;2022-07-29T13:20:25;7.43;;;2.60;;
16254;SDS011;8235;52.198;9.904;2022-07-29T13:22:54;5.55;;;2.88;;
16254;SDS011;8235;52.198;9.904;2022-07-29T13:25:25;3.75;;;2.70;;
16254;SDS011;8235;52.198;9.904;2022-07-29T13:27:54;5.03;;;2.17;;
16254;SDS011;8235;52.198;9.904;2022-07-29T13:30:21;6.25;;;2.90;;
16254;SDS011;8235;52.198;9.904;2022-07-29T13:32:48;5.53;;;2.70;;
16254;SDS011;8235;52.198;9.904;2022-07-29T13:35:15;4.75;;;2.70;;
16254;SDS011;8235;52.198;9.904;2022-07-29T13:37:44;10.27;;;3.28;;
16254;SDS011;8235;52.198;9.904;2022-07-29T13:40:11;7.93;;;2.90;;
16254;SDS011;8235;52.198;9.904;2022-07-29T13:42:38;5.32;;;3.00;;
16254;SDS011;8235;52.198;9.904;2022-07-29T13:45:06;6.70;;;2.45;;
16254;SDS011;8235;52.198;9.904;2022-07-29T13:47:34;5.75;;;3.15;;
16254;SDS011;8235;52.198;9.904;2022-07-29T13:50:01;8.38;;;3.33;;
16254;SDS011;8235;52.198;9.904;2022-07-29T13:52:29;5.38;;;2.90;;
16254;SDS011;8235;52.198;9.904;2022-07-29T13:54:57;6.45;;;3.20;;
16254;SDS011;8235;52.198;9.904;2022-07-29T13:57:24;5.10;;;3.20;;
16254;SDS011;8235;52.198;9.904;2022-07-29T13:59:51;4.45;;;3.13;;
16254;SDS011;8235;52.198;9.904;2022-07-29T14:02:17;7.28;;;3.15;;
16254;SDS011;8235;52.198;9.904;2022-07-29T14:04:44;5.03;;;3.25;;
16254;SDS011;8235;52.198;9.904;2022-07-29T14:07:10;6.63;;;3.50;;
16254;SDS011;8235;52.198;9.904;2022-07-29T14:09:37;5.10;;;3.20;;
16254;SDS011;8235;52.198;9.904;2022-07-29T14:12:06;4.85;;;3.40;;
16254;SDS011;8235;52.198;9.904;2022-07-29T14:14:33;7.00;;;3.47;;
16254;SDS011;8235;52.198;9.904;2022-07-29T14:17:01;5.50;;;3.22;;
16254;SDS011;8235;52.198;9.904;2022-07-29T14:19:30;4.82;;;3.15;;
16254;SDS011;8235;52.198;9.904;2022-07-29T14:22:00;7.45;;;3.35;;
16254;SDS011;8235;52.198;9.904;2022-07-29T14:24:27;6.30;;;3.22;;
16254;SDS011;8235;52.198;9.904;2022-07-29T14:26:53;7.40;;;3.33;;
16254;SDS011;8235;52.198;9.904;2022-07-29T14:29:22;8.32;;;3.47;;
16254;SDS011;8235;52.198;9.904;2022-07-29T14:31:48;5.80;;;2.95;;
16254;SDS011;8235;52.198;9.904;2022-07-29T14:34:15;5.05;;;3.08;;
16254;SDS011;8235;52.198;9.904;2022-07-29T14:36:41;6.45;;;2.67;;
16254;SDS011;8235;52.198;9.904;2022-07-29T14:39:08;4.47;;;2.60;;
16254;SDS011;8235;52.198;9.904;2022-07-29T14:41:34;5.35;;;3.08;;
16254;SDS011;8235;52.198;9.904;2022-07-29T14:44:01;4.55;;;3.20;;
16254;SDS011;8235;52.198;9.904;2022-07-29T14:46:29;7.80;;;2.83;;
16254;SDS011;8235;52.198;9.904;2022-07-29T14:48:56;6.75;;;2.85;;
16254;SDS011;8235;52.198;9.904;2022-07-29T14:51:23;3.85;;;2.75;;
16254;SDS011;8235;52.198;9.904;2022-07-29T14:53:49;4.43;;;2.65;;
16254;SDS011;8235;52.198;9.904;2022-07-29T14:56:16;5.38;;;3.03;;
16254;SDS011;8235;52.198;9.904;2022-07-29T14:58:42;6.05;;;2.70;;
16254;SDS011;8235;52.198;9.904;2022-07-29T15:01:09;4.75;;;2.70;;
16254;SDS011;8235;52.198;9.904;2022-07-29T15:03:37;4.88;;;2.50;;
16254;SDS011;8235;52.198;9.904;2022-07-29T15:06:03;5.13;;;2.78;;
16254;SDS011;8235;52.198;9.904;2022-07-29T15:08:30;4.50;;;2.45;;
16254;SDS011;8235;52.198;9.904;2022-07-29T15:10:57;3.58;;;2.70;;
16254;SDS011;8235;52.198;9.904;2022-07-29T15:13:24;4.38;;;2.65;;
16254;SDS011;8235;52.198;9.904;2022-07-29T15:15:51;7.45;;;2.67;;
16254;SDS011;8235;52.198;9.904;2022-07-29T15:18:17;3.38;;;2.53;;
16254;SDS011;8235;52.198;9.904;2022-07-29T15:20:45;4.57;;;2.58;;